createdAt,value
2019-03-26T00:01:55.901Z,68.00
2019-03-26T00:03:32.375Z,69.00
2019-03-26T00:05:08.959Z,69.20
2019-03-26T00:06:44.472Z,69.40
2019-03-26T00:08:19.989Z,69.50
2019-03-26T00:09:55.504Z,69.50
2019-03-26T00:11:32.501Z,69.60
2019-03-26T00:13:08.093Z,69.80
2019-03-26T00:14:43.605Z,69.60
2019-03-26T00:16:19.121Z,69.60
2019-03-26T00:17:54.626Z,69.70
2019-03-26T00:19:30.140Z,69.70
2019-03-26T00:21:05.652Z,69.80
2019-03-26T00:22:41.159Z,69.00
2019-03-26T00:24:16.672Z,69.80
2019-03-26T00:25:52.175Z,69.90
2019-03-26T00:29:03.390Z,69.10
2019-03-26T00:30:40.121Z,69.90
2019-03-26T00:32:15.641Z,69.90
2019-03-26T00:33:51.154Z,69.70
2019-03-26T00:35:26.673Z,69.90
2019-03-26T00:37:02.185Z,70.00
2019-03-26T00:38:37.770Z,70.00
2019-03-26T00:40:14.417Z,70.10
2019-03-26T00:41:49.939Z,70.20
2019-03-26T00:43:25.466Z,70.30
2019-03-26T00:45:00.979Z,70.40
2019-03-26T00:46:36.491Z,70.50
2019-03-26T00:48:11.985Z,70.50
2019-03-26T00:49:47.504Z,70.10
2019-03-26T00:51:23.018Z,70.90
2019-03-26T00:52:58.849Z,71.00
2019-03-26T00:54:34.478Z,71.20
2019-03-26T00:56:09.989Z,71.30
2019-03-26T00:57:45.508Z,71.30
2019-03-26T00:59:21.028Z,71.50
2019-03-26T01:00:57.498Z,71.20
2019-03-26T01:02:33.018Z,71.40
2019-03-26T01:04:08.540Z,71.50
2019-03-26T01:05:44.061Z,71.60
2019-03-26T01:07:20.554Z,71.60
2019-03-26T01:08:56.386Z,71.70
2019-03-26T01:10:31.921Z,71.20
2019-03-26T01:12:07.428Z,71.90
2019-03-26T01:13:44.007Z,72.00
2019-03-26T01:15:19.877Z,79.40
2019-03-26T01:16:55.390Z,71.30
2019-03-26T01:18:30.907Z,72.20
2019-03-26T01:20:07.963Z,72.60
2019-03-26T01:21:43.465Z,72.80
2019-03-26T01:23:18.974Z,72.90
2019-03-26T01:24:54.851Z,73.40
2019-03-26T01:26:30.347Z,74.50
2019-03-26T01:28:06.125Z,73.70
2019-03-26T01:29:41.656Z,73.80
2019-03-26T01:31:17.177Z,74.00
2019-03-26T01:32:52.684Z,74.00
2019-03-26T01:34:28.208Z,74.20
2019-03-26T01:36:04.046Z,74.30
2019-03-26T01:37:39.557Z,74.20
2019-03-26T01:39:15.068Z,74.10
2019-03-26T01:40:50.581Z,74.10
2019-03-26T01:42:26.092Z,74.00
2019-03-26T01:44:01.607Z,74.10
2019-03-26T01:45:37.581Z,74.10
2019-03-26T01:47:13.095Z,74.00
2019-03-26T01:48:48.613Z,73.90
2019-03-26T01:50:24.149Z,73.90
2019-03-26T01:51:59.652Z,73.90
2019-03-26T01:55:10.275Z,73.10
2019-03-26T01:56:45.775Z,73.00
2019-03-26T01:58:21.298Z,73.70
2019-03-26T01:59:57.145Z,73.60
2019-03-26T02:01:32.640Z,73.70
2019-03-26T02:03:08.151Z,73.60
2019-03-26T02:04:43.679Z,73.40
2019-03-26T02:06:19.200Z,73.40
2019-03-26T02:07:54.728Z,73.50
2019-03-26T02:09:30.246Z,73.40
2019-03-26T02:11:05.847Z,73.40
2019-03-26T02:12:41.359Z,73.20
2019-03-26T02:14:16.893Z,81.00
2019-03-26T02:15:52.406Z,72.30
2019-03-26T02:17:27.922Z,73.30
2019-03-26T02:19:03.473Z,73.20
2019-03-26T02:20:38.954Z,73.20
2019-03-26T02:22:14.473Z,73.20
2019-03-26T02:23:49.991Z,73.60
2019-03-26T02:25:25.524Z,85.40
2019-03-26T02:27:01.311Z,84.50
2019-03-26T02:28:36.829Z,81.30
2019-03-26T02:31:47.828Z,72.60
2019-03-26T02:33:23.608Z,90.60
2019-03-26T02:35:16.349Z,72.30
2019-03-26T02:36:36.340Z,73.40
2019-03-26T02:38:11.856Z,73.50
2019-03-26T02:39:47.374Z,73.50
2019-03-26T02:41:22.883Z,73.50
2019-03-26T02:42:58.399Z,73.50
2019-03-26T02:44:33.921Z,73.30
2019-03-26T02:46:10.139Z,73.40
2019-03-26T02:47:45.977Z,73.50
2019-03-26T02:49:21.753Z,73.30
2019-03-26T02:50:57.568Z,73.10
2019-03-26T02:52:33.085Z,73.00
2019-03-26T02:54:10.589Z,73.00
2019-03-26T02:55:46.119Z,73.10
2019-03-26T02:57:22.604Z,72.80
2019-03-26T02:58:58.129Z,72.80
2019-03-26T03:00:34.619Z,72.80
2019-03-26T03:02:11.268Z,72.80
2019-03-26T03:03:46.774Z,72.80
2019-03-26T03:05:35.282Z,72.80
2019-03-26T03:06:59.858Z,72.70
2019-03-26T03:08:35.371Z,72.60
2019-03-26T03:10:11.951Z,72.60
2019-03-26T03:11:47.465Z,72.70
2019-03-26T03:13:22.994Z,72.60
2019-03-26T03:14:58.507Z,72.60
2019-03-26T03:16:34.016Z,72.40
2019-03-26T03:18:09.552Z,72.40
2019-03-26T03:19:45.076Z,72.40
2019-03-26T03:21:20.911Z,72.30
2019-03-26T03:22:56.430Z,72.20
2019-03-26T03:24:31.967Z,72.10
2019-03-26T03:26:07.480Z,72.10
2019-03-26T03:27:43.031Z,72.10
2019-03-26T03:29:18.799Z,72.10
2019-03-26T03:30:54.332Z,72.00
2019-03-26T03:32:29.832Z,71.90
2019-03-26T03:34:05.356Z,71.90
2019-03-26T03:35:52.150Z,71.90
2019-03-26T03:37:18.101Z,71.80
2019-03-26T03:38:53.616Z,71.70
2019-03-26T03:40:29.136Z,71.70
2019-03-26T03:42:04.751Z,71.70
2019-03-26T03:43:40.237Z,71.70
2019-03-26T03:46:56.280Z,70.90
2019-03-26T03:48:33.562Z,71.50
2019-03-26T03:50:10.864Z,71.50
2019-03-26T03:51:47.919Z,71.50
2019-03-26T03:53:24.482Z,71.50
2019-03-26T03:55:00.808Z,71.50
2019-03-26T03:56:40.679Z,71.40
2019-03-26T03:58:16.840Z,71.50
2019-03-26T03:59:54.208Z,71.30
2019-03-26T04:01:29.723Z,71.30
2019-03-26T04:03:06.441Z,71.30
2019-03-26T04:04:41.958Z,71.30
2019-03-26T04:06:17.488Z,71.30
2019-03-26T04:07:52.991Z,71.30
2019-03-26T04:09:28.515Z,71.20
2019-03-26T04:11:04.407Z,71.30
2019-03-26T04:12:39.921Z,71.30
2019-03-26T04:14:15.691Z,71.10
2019-03-26T04:15:51.215Z,71.10
2019-03-26T04:17:26.732Z,71.10
2019-03-26T04:19:02.249Z,71.10
2019-03-26T04:20:37.779Z,71.10
2019-03-26T04:22:13.271Z,71.00
2019-03-26T04:23:48.782Z,70.90
2019-03-26T04:25:24.313Z,71.00
2019-03-26T04:27:00.075Z,70.90
2019-03-26T04:28:35.580Z,70.90
2019-03-26T04:30:11.610Z,70.90
2019-03-26T04:31:47.115Z,70.80
2019-03-26T04:33:22.628Z,70.80
2019-03-26T04:34:58.140Z,70.70
2019-03-26T04:36:33.660Z,70.80
2019-03-26T04:38:09.157Z,70.70
2019-03-26T04:39:46.191Z,70.60
2019-03-26T04:41:21.716Z,70.60
2019-03-26T04:42:57.227Z,70.60
2019-03-26T04:44:32.789Z,70.60
2019-03-26T04:46:08.339Z,70.50
2019-03-26T04:47:43.845Z,70.50
2019-03-26T04:49:19.357Z,70.50
2019-03-26T04:50:55.130Z,70.50
2019-03-26T04:52:30.651Z,70.50
2019-03-26T04:54:06.176Z,70.40
2019-03-26T04:55:41.716Z,70.40
2019-03-26T04:57:17.216Z,70.40
2019-03-26T04:58:52.732Z,70.40
2019-03-26T05:00:28.252Z,70.40
2019-03-26T05:02:03.780Z,70.40
2019-03-26T05:03:39.287Z,70.40
2019-03-26T05:05:14.793Z,70.60
2019-03-26T05:06:50.799Z,70.60
2019-03-26T05:08:26.329Z,70.90
2019-03-26T05:10:02.161Z,70.80
2019-03-26T05:11:37.672Z,70.30
2019-03-26T05:13:13.460Z,71.00
2019-03-26T05:14:48.968Z,71.10
2019-03-26T05:16:24.480Z,71.20
2019-03-26T05:19:35.093Z,70.60
2019-03-26T05:21:10.611Z,71.40
2019-03-26T05:22:46.132Z,72.00
2019-03-26T05:24:21.654Z,71.70
2019-03-26T05:25:57.181Z,71.70
2019-03-26T05:27:44.806Z,71.80
2019-03-26T05:29:10.218Z,71.80
2019-03-26T05:30:46.029Z,71.70
2019-03-26T05:32:21.561Z,71.80
2019-03-26T05:33:57.073Z,71.90
2019-03-26T05:35:32.619Z,72.00
2019-03-26T05:37:08.129Z,72.20
2019-03-26T05:38:43.931Z,72.10
2019-03-26T05:40:19.429Z,72.10
2019-03-26T05:41:54.966Z,77.00
2019-03-26T05:43:30.463Z,72.00
2019-03-26T05:45:08.800Z,72.00
2019-03-26T05:46:44.588Z,72.30
2019-03-26T05:48:21.335Z,72.30
2019-03-26T05:49:56.841Z,71.90
2019-03-26T05:51:32.361Z,72.20
2019-03-26T05:54:43.299Z,71.50
2019-03-26T05:56:18.811Z,72.20
2019-03-26T05:57:54.320Z,72.10
2019-03-26T06:01:05.196Z,71.30
2019-03-26T06:02:40.770Z,72.10
2019-03-26T06:04:16.303Z,72.10
2019-03-26T06:05:52.359Z,72.20
2019-03-26T06:07:31.142Z,72.90
2019-03-26T06:09:06.621Z,73.50
2019-03-26T06:10:42.401Z,73.90
2019-03-26T06:12:18.299Z,74.30
2019-03-26T06:13:54.190Z,74.30
2019-03-26T06:15:29.693Z,74.20
2019-03-26T06:17:05.208Z,74.00
2019-03-26T06:18:40.730Z,73.60
2019-03-26T06:20:16.494Z,74.30
2019-03-26T06:21:52.977Z,73.50
2019-03-26T06:23:28.578Z,73.50
2019-03-26T06:25:07.784Z,73.40
2019-03-26T06:26:43.317Z,73.20
2019-03-26T06:28:18.835Z,73.10
2019-03-26T06:29:54.357Z,73.50
2019-03-26T06:31:29.877Z,72.90
2019-03-26T06:33:05.431Z,72.60
2019-03-26T06:34:40.939Z,72.40
2019-03-26T06:36:16.451Z,72.10
2019-03-26T06:37:51.988Z,72.00
2019-03-26T06:39:27.501Z,72.00
2019-03-26T06:41:03.011Z,72.40
2019-03-26T06:42:38.585Z,71.20
2019-03-26T06:44:14.105Z,70.70
2019-03-26T06:45:50.694Z,70.40
2019-03-26T06:47:26.226Z,70.20
2019-03-26T06:49:01.758Z,70.00
2019-03-26T06:50:37.276Z,69.70
2019-03-26T06:52:13.053Z,69.50
2019-03-26T06:53:48.584Z,69.10
2019-03-26T06:55:24.602Z,68.80
2019-03-26T06:57:00.373Z,69.50
2019-03-26T06:58:36.150Z,68.70
2019-03-26T07:00:13.376Z,68.60
2019-03-26T07:01:49.071Z,68.50
2019-03-26T07:03:25.292Z,68.40
2019-03-26T07:05:00.829Z,68.30
2019-03-26T07:06:36.349Z,68.30
2019-03-26T07:08:12.155Z,68.10
2019-03-26T07:09:47.685Z,67.80
2019-03-26T07:11:23.197Z,67.10
2019-03-26T07:13:00.102Z,66.90
2019-03-26T07:14:35.895Z,66.80
2019-03-26T07:16:11.409Z,66.80
2019-03-26T07:17:46.928Z,66.80
2019-03-26T07:19:22.767Z,66.80
2019-03-26T07:20:58.617Z,67.80
2019-03-26T07:22:34.468Z,66.90
2019-03-26T07:24:10.076Z,66.90
2019-03-26T07:25:45.955Z,67.00
2019-03-26T07:27:21.491Z,66.90
2019-03-26T07:28:58.333Z,66.90
2019-03-26T07:30:45.012Z,66.70
2019-03-26T07:32:23.436Z,66.70
2019-03-26T07:33:58.969Z,66.60
2019-03-26T07:35:34.759Z,66.70
2019-03-26T07:37:10.280Z,66.70
2019-03-26T07:38:45.810Z,66.60
2019-03-26T07:40:21.380Z,66.40
2019-03-26T07:41:56.896Z,66.50
2019-03-26T07:43:32.410Z,66.80
2019-03-26T07:45:08.679Z,67.00
2019-03-26T07:46:44.193Z,67.20
2019-03-26T07:48:19.719Z,67.30
2019-03-26T07:49:55.234Z,67.40
2019-03-26T07:51:30.763Z,67.60
2019-03-26T07:53:06.334Z,67.70
2019-03-26T07:54:41.858Z,67.70
2019-03-26T07:56:17.685Z,67.70
2019-03-26T07:57:53.220Z,67.90
2019-03-26T07:59:29.074Z,68.00
2019-03-26T08:01:05.568Z,68.20
2019-03-26T08:02:41.086Z,68.20
2019-03-26T08:04:16.631Z,68.20
2019-03-26T08:05:52.151Z,68.30
2019-03-26T08:07:27.686Z,68.30
2019-03-26T08:09:03.291Z,68.30
2019-03-26T08:10:38.879Z,68.30
2019-03-26T08:12:14.405Z,68.30
2019-03-26T08:13:49.988Z,68.30
2019-03-26T08:15:25.542Z,68.30
2019-03-26T08:17:01.134Z,68.30
2019-03-26T08:18:36.988Z,68.40
2019-03-26T08:20:12.854Z,68.30
2019-03-26T08:21:48.782Z,68.30
2019-03-26T08:23:24.619Z,68.00
2019-03-26T08:25:01.395Z,67.80
2019-03-26T08:26:36.916Z,67.80
2019-03-26T08:28:12.441Z,67.80
2019-03-26T08:29:48.050Z,67.90
2019-03-26T08:31:23.569Z,67.90
2019-03-26T08:32:59.098Z,67.90
2019-03-26T08:34:34.662Z,67.90
2019-03-26T08:36:10.175Z,67.90
2019-03-26T08:37:45.702Z,67.90
2019-03-26T08:39:21.231Z,68.20
2019-03-26T08:40:56.763Z,68.20
2019-03-26T08:42:32.439Z,68.00
2019-03-26T08:44:07.958Z,68.10
2019-03-26T08:45:43.491Z,68.30
2019-03-26T08:47:19.015Z,68.30
2019-03-26T08:48:54.549Z,68.40
2019-03-26T08:50:30.328Z,68.60
2019-03-26T08:52:05.847Z,68.70
2019-03-26T08:53:41.380Z,68.90
2019-03-26T08:55:16.918Z,68.80
2019-03-26T08:56:52.509Z,69.50
2019-03-26T08:58:28.126Z,68.50
2019-03-26T09:00:04.319Z,68.30
2019-03-26T09:01:40.538Z,68.10
2019-03-26T09:03:16.073Z,68.10
2019-03-26T09:04:51.598Z,68.10
2019-03-26T09:06:27.383Z,68.20
2019-03-26T09:08:03.854Z,68.30
2019-03-26T09:09:39.998Z,68.30
2019-03-26T09:11:15.561Z,68.10
2019-03-26T09:12:52.047Z,68.00
2019-03-26T09:14:27.551Z,68.10
2019-03-26T09:16:04.591Z,68.20
2019-03-26T09:17:44.028Z,68.00
2019-03-26T09:19:18.159Z,67.70
2019-03-26T09:20:53.678Z,67.70
2019-03-26T09:22:29.196Z,67.80
2019-03-26T09:24:04.718Z,67.60
2019-03-26T09:25:40.591Z,67.30
2019-03-26T09:27:16.113Z,67.10
2019-03-26T09:28:51.640Z,67.00
2019-03-26T09:30:27.515Z,66.70
2019-03-26T09:32:03.034Z,65.70
2019-03-26T09:33:38.548Z,64.90
2019-03-26T09:35:14.475Z,64.50
2019-03-26T09:36:50.104Z,64.10
2019-03-26T09:38:37.973Z,63.20
2019-03-26T09:40:08.025Z,62.80
2019-03-26T09:41:43.563Z,62.80
2019-03-26T09:43:19.158Z,62.60
2019-03-26T09:44:56.593Z,62.60
2019-03-26T09:46:32.065Z,62.10
2019-03-26T09:48:07.581Z,62.20
2019-03-26T09:49:43.085Z,62.20
2019-03-26T09:51:18.602Z,62.10
2019-03-26T09:52:54.114Z,61.80
2019-03-26T09:54:29.643Z,61.80
2019-03-26T09:56:06.158Z,61.80
2019-03-26T09:57:41.675Z,61.70
2019-03-26T09:59:17.192Z,62.00
2019-03-26T10:00:52.706Z,62.10
2019-03-26T10:02:28.226Z,61.70
2019-03-26T10:04:03.763Z,61.80
2019-03-26T10:05:39.292Z,62.00
2019-03-26T10:07:21.416Z,62.10
2019-03-26T10:08:52.977Z,62.00
2019-03-26T10:10:28.918Z,62.50
2019-03-26T10:12:04.428Z,61.80
2019-03-26T10:13:39.958Z,62.00
2019-03-26T10:15:15.806Z,61.60
2019-03-26T10:16:51.326Z,61.70
2019-03-26T10:18:26.826Z,61.50
2019-03-26T10:20:02.427Z,61.70
2019-03-26T10:21:38.399Z,62.00
2019-03-26T10:23:14.299Z,61.80
2019-03-26T10:24:49.824Z,61.10
2019-03-26T10:26:25.347Z,60.70
2019-03-26T10:28:00.869Z,60.20
2019-03-26T10:29:37.528Z,59.50
2019-03-26T10:31:13.041Z,58.80
2019-03-26T10:32:48.631Z,58.90
2019-03-26T10:34:24.224Z,58.70
2019-03-26T10:35:59.743Z,58.40
2019-03-26T10:37:35.270Z,58.30
2019-03-26T10:39:10.801Z,58.20
2019-03-26T10:40:46.324Z,57.80
2019-03-26T10:42:21.840Z,57.60
2019-03-26T10:43:57.703Z,56.60
2019-03-26T10:45:33.236Z,56.50
2019-03-26T10:47:09.082Z,56.50
2019-03-26T10:48:44.600Z,56.70
2019-03-26T10:50:20.132Z,56.50
2019-03-26T10:51:55.679Z,56.30
2019-03-26T10:53:31.545Z,56.20
2019-03-26T10:55:07.507Z,56.30
2019-03-26T10:56:43.036Z,56.30
2019-03-26T10:58:18.564Z,55.70
2019-03-26T10:59:54.096Z,55.10
2019-03-26T11:01:29.607Z,55.00
2019-03-26T11:03:05.140Z,54.90
2019-03-26T11:04:40.675Z,55.00
2019-03-26T11:06:16.208Z,54.80
2019-03-26T11:07:51.746Z,53.60
2019-03-26T11:09:27.495Z,53.70
2019-03-26T11:11:03.074Z,53.50
2019-03-26T11:12:39.892Z,52.70
2019-03-26T11:14:15.423Z,52.80
2019-03-26T11:15:51.250Z,52.90
2019-03-26T11:17:26.780Z,52.10
2019-03-26T11:19:02.315Z,51.80
2019-03-26T11:20:37.837Z,51.90
2019-03-26T11:22:13.353Z,51.10
2019-03-26T11:23:48.872Z,51.10
2019-03-26T11:25:24.393Z,50.20
2019-03-26T11:27:00.234Z,50.10
2019-03-26T11:28:35.755Z,50.10
2019-03-26T11:30:12.082Z,49.90
2019-03-26T11:31:47.666Z,49.50
2019-03-26T11:33:24.162Z,49.10
2019-03-26T11:34:59.691Z,49.20
2019-03-26T11:36:35.219Z,49.50
2019-03-26T11:38:10.802Z,49.50
2019-03-26T11:39:46.331Z,49.20
2019-03-26T11:41:21.854Z,49.00
2019-03-26T11:42:57.379Z,49.10
2019-03-26T11:44:32.908Z,49.40
2019-03-26T11:46:08.436Z,49.30
2019-03-26T11:47:44.700Z,48.80
2019-03-26T11:49:20.223Z,49.10
2019-03-26T11:50:55.841Z,49.40
2019-03-26T11:52:31.343Z,49.20
2019-03-26T11:54:06.861Z,49.00
2019-03-26T11:55:42.417Z,49.20
2019-03-26T11:57:17.913Z,49.30
2019-03-26T11:58:53.436Z,49.20
2019-03-26T12:00:30.612Z,49.00
2019-03-26T12:02:07.302Z,48.80
2019-03-26T12:03:42.829Z,49.20
2019-03-26T12:05:18.444Z,49.30
2019-03-26T12:06:53.975Z,49.40
2019-03-26T12:08:29.494Z,49.70
2019-03-26T12:10:08.679Z,50.00
2019-03-26T12:11:44.968Z,50.10
2019-03-26T12:13:20.496Z,50.20
2019-03-26T12:14:56.030Z,50.40
2019-03-26T12:16:31.560Z,50.60
2019-03-26T12:18:07.091Z,50.70
2019-03-26T12:19:42.609Z,51.20
2019-03-26T12:21:18.401Z,50.80
2019-03-26T12:22:53.924Z,50.40
2019-03-26T12:24:29.718Z,50.20
2019-03-26T12:26:05.246Z,49.70
2019-03-26T12:27:40.779Z,49.90
2019-03-26T12:29:16.307Z,49.80
2019-03-26T12:30:51.834Z,50.10
2019-03-26T12:32:27.684Z,50.10
2019-03-26T12:34:04.076Z,50.00
2019-03-26T12:35:39.609Z,50.10
2019-03-26T12:37:15.816Z,49.90
2019-03-26T12:38:51.338Z,49.90
2019-03-26T12:40:26.951Z,50.10
2019-03-26T12:42:02.537Z,49.80
2019-03-26T12:43:38.413Z,49.50
2019-03-26T12:45:14.405Z,49.30
2019-03-26T12:46:49.943Z,49.30
2019-03-26T12:48:25.749Z,49.30
2019-03-26T12:50:01.277Z,49.10
2019-03-26T12:51:39.327Z,49.30
2019-03-26T12:53:14.023Z,49.30
2019-03-26T12:54:49.537Z,49.60
2019-03-26T12:56:25.399Z,49.50
2019-03-26T12:58:01.230Z,49.60
2019-03-26T12:59:36.780Z,49.70
2019-03-26T13:01:12.296Z,49.80
2019-03-26T13:02:47.828Z,49.50
2019-03-26T13:04:23.361Z,49.20
2019-03-26T13:05:58.907Z,49.10
2019-03-26T13:07:34.444Z,49.30
2019-03-26T13:09:10.708Z,49.20
2019-03-26T13:10:53.640Z,49.50
2019-03-26T13:12:24.627Z,49.80
2019-03-26T13:14:00.112Z,49.50
2019-03-26T13:15:35.654Z,49.80
2019-03-26T13:17:11.168Z,49.60
2019-03-26T13:18:47.732Z,49.20
2019-03-26T13:20:23.276Z,49.70
2019-03-26T13:21:58.795Z,49.90
2019-03-26T13:23:34.305Z,49.80
2019-03-26T13:25:10.420Z,49.70
2019-03-26T13:26:49.124Z,49.80
2019-03-26T13:28:24.809Z,50.10
2019-03-26T13:30:00.356Z,50.00
2019-03-26T13:31:35.892Z,50.10
2019-03-26T13:33:11.421Z,49.90
2019-03-26T13:34:46.946Z,50.00
2019-03-26T13:36:22.476Z,50.20
2019-03-26T13:37:58.012Z,50.50
2019-03-26T13:39:33.861Z,50.40
2019-03-26T13:41:09.713Z,50.50
2019-03-26T13:42:45.225Z,50.30
2019-03-26T13:44:20.741Z,50.90
2019-03-26T13:45:56.313Z,50.40
2019-03-26T13:47:31.805Z,50.50
2019-03-26T13:49:07.323Z,50.50
2019-03-26T13:50:42.939Z,50.50
2019-03-26T13:52:18.456Z,50.30
2019-03-26T13:53:53.972Z,49.90
2019-03-26T13:55:29.507Z,49.90
2019-03-26T13:57:05.017Z,50.00
2019-03-26T13:58:40.537Z,50.10
2019-03-26T14:03:28.154Z,50.00
2019-03-26T14:05:05.684Z,50.50
2019-03-26T14:06:41.213Z,50.70
2019-03-26T14:08:16.746Z,51.00
2019-03-26T14:09:52.261Z,51.10
2019-03-26T14:11:27.790Z,50.80
2019-03-26T14:13:03.320Z,51.00
2019-03-26T14:14:38.835Z,51.10
2019-03-26T14:16:14.379Z,55.90
2019-03-26T14:17:51.003Z,56.30
2019-03-26T14:19:26.516Z,50.80
2019-03-26T14:21:02.051Z,51.20
2019-03-26T14:22:37.566Z,51.30
2019-03-26T14:24:13.579Z,51.10
2019-03-26T14:25:49.193Z,51.20
2019-03-26T14:27:24.721Z,51.30
2019-03-26T14:29:00.234Z,51.50
2019-03-26T14:30:41.644Z,51.60
2019-03-26T14:32:17.177Z,51.50
2019-03-26T14:33:52.698Z,51.60
2019-03-26T14:35:28.493Z,51.10
2019-03-26T14:37:04.046Z,51.00
2019-03-26T14:38:39.679Z,50.90
2019-03-26T14:40:15.262Z,50.70
2019-03-26T14:41:52.302Z,50.60
2019-03-26T14:43:27.815Z,50.70
2019-03-26T14:45:07.260Z,50.90
2019-03-26T14:46:42.797Z,50.80
2019-03-26T14:48:18.559Z,50.90
2019-03-26T14:49:54.397Z,50.80
2019-03-26T14:51:30.240Z,50.70
2019-03-26T14:53:06.100Z,50.80
2019-03-26T14:54:41.630Z,50.70
2019-03-26T14:56:17.174Z,50.70
2019-03-26T14:57:53.090Z,50.90
2019-03-26T14:59:28.610Z,51.10
2019-03-26T15:01:04.302Z,51.00
2019-03-26T15:02:40.074Z,51.00
2019-03-26T15:04:15.604Z,51.00
2019-03-26T15:05:51.122Z,50.70
2019-03-26T15:07:26.899Z,50.60
2019-03-26T15:09:02.542Z,50.60
2019-03-26T15:10:39.088Z,50.60
2019-03-26T15:12:14.879Z,50.60
2019-03-26T15:13:51.477Z,50.40
2019-03-26T15:15:26.991Z,50.40
2019-03-26T15:17:02.541Z,51.00
2019-03-26T15:18:38.074Z,50.60
2019-03-26T15:20:13.735Z,50.60
2019-03-26T15:21:49.271Z,50.40
2019-03-26T15:23:24.789Z,50.40
2019-03-26T15:25:00.432Z,50.40
2019-03-26T15:26:36.205Z,50.50
2019-03-26T15:28:12.160Z,50.60
2019-03-26T15:29:47.750Z,50.50
2019-03-26T15:31:24.534Z,50.60
2019-03-26T15:33:00.045Z,50.60
2019-03-26T15:34:36.424Z,50.70
2019-03-26T15:36:12.066Z,50.70
2019-03-26T15:37:47.591Z,50.70
2019-03-26T15:39:23.119Z,50.80
2019-03-26T15:40:58.633Z,50.70
2019-03-26T15:42:34.163Z,50.80
2019-03-26T15:44:09.682Z,50.80
2019-03-26T15:45:45.202Z,50.90
2019-03-26T15:47:20.736Z,50.90
2019-03-26T15:48:56.499Z,50.90
2019-03-26T15:50:43.577Z,51.00
2019-03-26T15:52:19.105Z,51.00
2019-03-26T15:53:54.629Z,51.00
2019-03-26T15:55:30.158Z,51.10
2019-03-26T15:57:05.704Z,51.10
2019-03-26T15:58:41.241Z,51.20
2019-03-26T16:00:21.463Z,63.10
2019-03-26T16:01:57.324Z,51.00
2019-03-26T16:03:32.836Z,51.50
2019-03-26T16:05:09.065Z,53.10
2019-03-26T16:08:19.700Z,51.20
2019-03-26T16:09:55.222Z,51.60
2019-03-26T16:11:35.975Z,51.80
2019-03-26T16:13:07.981Z,52.00
2019-03-26T16:14:43.507Z,52.00
2019-03-26T16:16:19.015Z,52.00
2019-03-26T16:17:54.541Z,52.00
2019-03-26T16:19:32.894Z,51.90
2019-03-26T16:21:07.607Z,51.90
2019-03-26T16:22:43.171Z,51.90
2019-03-26T16:24:18.682Z,52.50
2019-03-26T16:25:54.215Z,51.90
2019-03-26T16:27:29.740Z,52.00
2019-03-26T16:29:05.268Z,52.00
2019-03-26T16:30:40.788Z,52.70
2019-03-26T16:32:16.318Z,52.00
2019-03-26T16:33:51.856Z,52.10
2019-03-26T16:35:27.857Z,52.10
2019-03-26T16:37:03.399Z,52.20
2019-03-26T16:38:38.924Z,52.20
2019-03-26T16:40:14.441Z,52.30
2019-03-26T16:41:49.967Z,52.40
2019-03-26T16:43:25.483Z,52.40
2019-03-26T16:45:01.451Z,52.40
2019-03-26T16:46:36.962Z,52.60
2019-03-26T16:48:12.500Z,52.90
2019-03-26T16:49:48.710Z,53.10
2019-03-26T16:51:24.301Z,53.20
2019-03-26T16:52:59.822Z,53.50
2019-03-26T16:54:35.383Z,53.90
2019-03-26T16:56:11.300Z,54.40
2019-03-26T16:57:46.826Z,54.70
2019-03-26T16:59:22.419Z,55.60
2019-03-26T17:00:58.823Z,55.10
2019-03-26T17:02:34.335Z,55.30
2019-03-26T17:04:09.855Z,55.50
2019-03-26T17:05:45.385Z,55.60
2019-03-26T17:07:20.939Z,55.60
2019-03-26T17:08:56.455Z,55.80
2019-03-26T17:10:32.249Z,55.80
2019-03-26T17:12:07.786Z,56.00
2019-03-26T17:13:44.382Z,56.20
2019-03-26T17:15:19.897Z,56.60
2019-03-26T17:16:55.642Z,57.70
2019-03-26T17:18:31.132Z,57.40
2019-03-26T17:20:08.292Z,57.60
2019-03-26T17:21:43.915Z,58.10
2019-03-26T17:23:19.477Z,58.30
2019-03-26T17:24:55.048Z,58.50
2019-03-26T17:26:30.993Z,58.90
2019-03-26T17:28:06.624Z,59.20
2019-03-26T17:29:42.349Z,59.20
2019-03-26T17:31:17.867Z,59.50
2019-03-26T17:32:53.578Z,59.80
2019-03-26T17:34:29.522Z,60.10
2019-03-26T17:36:05.171Z,60.30
2019-03-26T17:37:42.647Z,60.40
2019-03-26T17:39:18.174Z,60.60
2019-03-26T17:40:53.705Z,60.60
2019-03-26T17:42:29.244Z,61.40
2019-03-26T17:44:04.857Z,61.50
2019-03-26T17:45:40.426Z,61.20
2019-03-26T17:47:15.967Z,61.50
2019-03-26T17:48:52.473Z,61.60
2019-03-26T17:50:27.982Z,61.70
2019-03-26T17:52:03.509Z,61.80
2019-03-26T17:53:40.119Z,62.10
2019-03-26T17:55:15.736Z,62.10
2019-03-26T17:56:51.246Z,62.30
2019-03-26T17:58:27.339Z,62.30
2019-03-26T18:00:03.077Z,62.50
2019-03-26T18:01:38.734Z,62.50
2019-03-26T18:03:25.780Z,62.50
2019-03-26T18:04:52.269Z,62.80
2019-03-26T18:06:27.786Z,63.10
2019-03-26T18:08:03.314Z,63.00
2019-03-26T18:09:38.839Z,63.30
2019-03-26T18:11:14.362Z,63.60
2019-03-26T18:12:49.918Z,63.40
2019-03-26T18:14:26.370Z,64.80
2019-03-26T18:16:03.135Z,65.20
2019-03-26T18:17:38.660Z,65.50
2019-03-26T18:19:14.173Z,65.10
2019-03-26T18:20:49.692Z,64.90
2019-03-26T18:22:26.183Z,64.70
2019-03-26T18:24:01.714Z,64.50
2019-03-26T18:25:37.231Z,64.80
2019-03-26T18:27:13.031Z,64.80
2019-03-26T18:28:48.800Z,64.90
2019-03-26T18:30:24.385Z,65.00
2019-03-26T18:31:59.906Z,64.90
2019-03-26T18:33:36.752Z,65.10
2019-03-26T18:35:12.601Z,65.10
2019-03-26T18:36:48.121Z,65.10
2019-03-26T18:38:23.657Z,65.50
2019-03-26T18:39:59.422Z,65.40
2019-03-26T18:41:35.200Z,65.30
2019-03-26T18:43:11.704Z,65.20
2019-03-26T18:44:47.273Z,65.30
2019-03-26T18:46:22.820Z,65.70
2019-03-26T18:47:58.408Z,65.50
2019-03-26T18:49:34.946Z,65.90
2019-03-26T18:51:10.511Z,65.80
2019-03-26T18:52:46.009Z,65.60
2019-03-26T18:54:21.795Z,65.70
2019-03-26T18:55:58.129Z,65.70
2019-03-26T18:57:33.661Z,65.60
2019-03-26T18:59:09.184Z,65.80
2019-03-26T19:00:44.695Z,65.70
2019-03-26T19:02:20.515Z,65.70
2019-03-26T19:03:56.049Z,65.80
2019-03-26T19:05:31.634Z,65.60
2019-03-26T19:07:07.151Z,65.50
2019-03-26T19:08:42.682Z,65.40
2019-03-26T19:10:29.895Z,65.40
2019-03-26T19:12:05.750Z,65.50
2019-03-26T19:13:41.274Z,65.30
2019-03-26T19:15:17.040Z,65.40
2019-03-26T19:16:52.548Z,65.70
2019-03-26T19:18:28.076Z,65.70
2019-03-26T19:20:04.563Z,65.60
2019-03-26T19:21:40.340Z,65.60
2019-03-26T19:23:15.902Z,66.10
2019-03-26T19:24:51.395Z,65.70
2019-03-26T19:26:26.915Z,65.80
2019-03-26T19:28:02.432Z,65.80
2019-03-26T19:29:37.961Z,65.70
2019-03-26T19:31:13.501Z,65.70
2019-03-26T19:32:49.030Z,65.80
2019-03-26T19:34:25.788Z,65.80
2019-03-26T19:36:01.309Z,65.80
2019-03-26T19:37:37.418Z,65.80
2019-03-26T19:39:12.949Z,66.00
2019-03-26T19:40:48.474Z,66.10
2019-03-26T19:42:24.235Z,66.10
2019-03-26T19:43:59.756Z,65.90
2019-03-26T19:45:35.271Z,66.10
2019-03-26T19:47:10.784Z,66.10
2019-03-26T19:48:46.314Z,66.10
2019-03-26T19:50:21.850Z,66.10
2019-03-26T19:51:57.456Z,66.30
2019-03-26T19:53:32.979Z,66.20
2019-03-26T19:55:09.437Z,66.10
2019-03-26T19:56:44.946Z,66.30
2019-03-26T19:58:20.481Z,66.10
2019-03-26T19:59:55.994Z,66.30
2019-03-26T20:01:31.855Z,66.30
2019-03-26T20:03:07.383Z,65.20
2019-03-26T20:04:42.915Z,66.00
2019-03-26T20:06:18.426Z,66.10
2019-03-26T20:07:53.939Z,66.10
2019-03-26T20:09:29.476Z,66.20
2019-03-26T20:11:04.993Z,66.20
2019-03-26T20:12:40.759Z,66.20
2019-03-26T20:14:16.274Z,66.50
2019-03-26T20:15:51.795Z,66.40
2019-03-26T20:17:27.318Z,66.60
2019-03-26T20:19:02.844Z,66.50
2019-03-26T20:20:38.368Z,66.50
2019-03-26T20:22:13.888Z,66.60
2019-03-26T20:23:49.422Z,66.60
2019-03-26T20:25:24.942Z,66.80
2019-03-26T20:27:00.460Z,66.70
2019-03-26T20:28:35.995Z,66.60
2019-03-26T20:30:12.153Z,66.60
2019-03-26T20:31:47.684Z,66.70
2019-03-26T20:33:23.193Z,66.60
2019-03-26T20:34:59.806Z,66.30
2019-03-26T20:36:35.668Z,66.00
2019-03-26T20:38:11.201Z,66.20
2019-03-26T20:39:46.723Z,66.20
2019-03-26T20:41:22.249Z,66.10
2019-03-26T20:42:57.776Z,66.10
2019-03-26T20:44:33.288Z,66.20
2019-03-26T20:46:08.803Z,66.40
2019-03-26T20:47:44.340Z,66.40
2019-03-26T20:49:20.127Z,66.10
2019-03-26T20:50:57.148Z,65.80